Time;durP1;ratioP1;P1;durP2;ratioP2;P2;SDS_P1;SDS_P2;PMS_P1;PMS_P2;Temp;Humidity;BMP_temperature;BMP_pressure;BME280_temperature;BME280_humidity;BME280_pressure;Samples;Min_cycle;Max_cycle;Signal;HPM_P1;HPM_P2
2022/06/28 00:02:05;;;;;;;2.87;2.67;;;;;;;18.80;100.00;99972.23;1677965;83;21118;-56
2022/06/28 00:04:31;;;;;;;5.00;2.52;;;;;;;18.76;100.00;99970.25;1680416;83;21172;-56
2022/06/28 00:06:57;;;;;;;2.05;1.95;;;;;;;18.75;100.00;99971.23;1708185;82;21141;-55
2022/06/28 00:09:24;;;;;;;3.02;2.83;;;;;;;18.76;100.00;99974.34;1714525;83;21369;-55
2022/06/28 00:11:51;;;;;;;2.40;2.30;;;;;;;18.75;100.00;99975.33;1709639;82;21046;-56
2022/06/28 00:17:03;;;;;;;6.47;3.05;;;;;;;18.73;100.00;99969.61;1682085;83;21516;-55
2022/06/28 00:19:30;;;;;;;4.00;3.70;;;;;;;18.73;100.00;99962.30;1688061;83;21555;-55
2022/06/28 00:21:56;;;;;;;4.37;2.77;;;;;;;18.74;100.00;99961.31;1692402;84;21054;-56
2022/06/28 00:24:24;;;;;;;3.98;3.67;;;;;;;18.75;100.00;99963.06;1673227;83;21113;-56
2022/06/28 00:26:50;;;;;;;3.92;3.55;;;;;;;18.76;100.00;99958.48;1697379;83;21020;-56
2022/06/28 00:29:17;;;;;;;4.30;3.95;;;;;;;18.76;100.00;99956.63;1697300;83;21300;-56
2022/06/28 00:31:43;;;;;;;3.70;3.50;;;;;;;18.77;100.00;99952.91;1700300;83;20883;-55
2022/06/28 00:34:10;;;;;;;3.92;3.65;;;;;;;18.76;100.00;99955.26;1678921;83;21489;-56
2022/06/28 00:36:36;;;;;;;4.10;3.75;;;;;;;18.76;100.00;99958.48;1757017;80;21433;-55
2022/06/28 00:39:03;;;;;;;6.97;3.87;;;;;;;18.72;100.00;99960.56;1755562;80;22241;-56
2022/06/28 00:41:29;;;;;;;2.83;2.62;;;;;;;18.69;100.00;99956.73;1755602;80;20907;-55
2022/06/28 00:43:56;;;;;;;3.72;3.15;;;;;;;18.61;100.00;99953.74;1756469;80;20943;-55
2022/06/28 00:46:22;;;;;;;4.28;3.37;;;;;;;18.56;100.00;99951.81;1759380;80;21413;-55
2022/06/28 00:48:49;;;;;;;4.45;2.98;;;;;;;18.51;100.00;99957.64;1756109;80;20884;-56
2022/06/28 00:51:16;;;;;;;4.00;3.00;;;;;;;18.44;100.00;99945.97;1757232;80;21099;-55
2022/06/28 00:53:42;;;;;;;3.10;2.90;;;;;;;18.37;100.00;99951.00;1755124;80;21496;-55
2022/06/28 00:56:08;;;;;;;4.85;3.30;;;;;;;18.35;100.00;99958.95;1754602;80;21023;-55
2022/06/28 00:58:35;;;;;;;4.05;2.50;;;;;;;18.36;100.00;99957.96;1730914;80;21903;-55
2022/06/28 01:01:01;;;;;;;3.37;2.60;;;;;;;18.38;100.00;99958.69;1752050;80;21461;-55
2022/06/28 01:03:28;;;;;;;2.47;2.27;;;;;;;18.42;100.00;99950.66;1754845;80;21263;-55
2022/06/28 01:05:55;;;;;;;2.72;2.52;;;;;;;18.44;100.00;99952.78;1749429;79;21438;-55
2022/06/28 01:08:24;;;;;;;6.72;2.95;;;;;;;18.42;100.00;99950.17;1677421;83;22408;-55
2022/06/28 01:10:50;;;;;;;3.75;3.55;;;;;;;18.39;100.00;99954.98;1756516;80;21471;-55
2022/06/28 01:13:17;;;;;;;2.92;2.58;;;;;;;18.38;100.00;99952.75;1677798;83;21081;-55
2022/06/28 01:15:44;;;;;;;3.98;2.62;;;;;;;18.34;100.00;99953.98;1755405;80;21221;-55
2022/06/28 01:18:12;;;;;;;4.50;2.70;;;;;;;18.31;100.00;99948.77;1753153;80;21937;-56
2022/06/28 01:20:44;;;;;;;3.35;2.95;;;;;;;18.25;100.00;99947.87;1725911;81;21054;-56
2022/06/28 01:23:17;;;;;;;2.67;2.40;;;;;;;18.25;100.00;99946.52;1725111;80;21078;-56
2022/06/28 01:25:44;;;;;;;5.53;3.42;;;;;;;18.28;100.00;99949.51;1756204;80;21026;-57
2022/06/28 01:28:12;;;;;;;3.08;2.77;;;;;;;18.26;100.00;99948.26;1753044;80;21151;-55
2022/06/28 01:30:39;;;;;;;3.65;3.45;;;;;;;18.25;100.00;99951.97;1745148;80;21040;-55
2022/06/28 01:33:07;;;;;;;4.05;3.75;;;;;;;18.27;100.00;99945.05;1743604;80;21037;-55
2022/06/28 01:35:33;;;;;;;4.35;4.08;;;;;;;18.26;100.00;99941.45;1745991;80;21072;-55
2022/06/28 01:38:01;;;;;;;4.87;4.47;;;;;;;18.27;100.00;99945.05;1744076;80;21124;-55
2022/06/28 01:40:28;;;;;;;5.75;4.45;;;;;;;18.25;100.00;99943.80;1713176;81;22256;-56
2022/06/28 01:42:55;;;;;;;5.03;4.83;;;;;;;18.26;100.00;99950.11;1746261;80;21574;-56
2022/06/28 01:45:22;;;;;;;5.25;4.87;;;;;;;18.25;100.00;99947.01;1746669;80;21799;-56
2022/06/28 01:47:49;;;;;;;3.95;3.65;;;;;;;18.21;100.00;99940.91;1746000;80;21045;-56
2022/06/28 01:50:25;;;;;;;4.10;3.80;;;;;;;18.20;100.00;99943.29;1745712;80;21033;-56
2022/06/28 01:52:52;;;;;;;4.22;3.92;;;;;;;18.19;100.00;99937.95;1745581;80;21190;-56
2022/06/28 01:55:30;;;;;;;4.30;3.92;;;;;;;18.18;100.00;99945.25;1745007;80;21630;-57
2022/06/28 01:57:57;;;;;;;4.12;3.92;;;;;;;18.15;100.00;99950.44;1744006;80;21072;-56
2022/06/28 02:00:24;;;;;;;5.90;5.40;;;;;;;18.14;100.00;99945.09;1745071;80;21487;-56
2022/06/28 02:02:50;;;;;;;4.17;3.77;;;;;;;18.16;100.00;99941.77;1745387;80;21067;-56
2022/06/28 02:05:35;;;;;;;4.53;4.22;;;;;;;18.19;100.00;99944.77;1744114;80;21102;-56
2022/06/28 02:08:03;;;;;;;4.37;4.00;;;;;;;18.21;100.00;99941.41;1743079;80;21040;-56
2022/06/28 02:10:31;;;;;;;6.25;5.08;;;;;;;18.19;100.00;99946.13;1743491;80;21199;-56
2022/06/28 02:12:59;;;;;;;4.53;4.22;;;;;;;18.20;100.00;99939.70;1743160;80;21115;-56
2022/06/28 02:15:26;;;;;;;6.40;6.00;;;;;;;18.22;100.00;99939.93;1744471;80;21395;-56
2022/06/28 02:17:52;;;;;;;5.50;5.08;;;;;;;18.24;100.00;99937.09;1745194;80;21140;-56
2022/06/28 02:20:19;;;;;;;4.60;3.75;;;;;;;18.26;100.00;99944.66;1743702;80;21578;-56
2022/06/28 02:22:45;;;;;;;4.47;3.98;;;;;;;18.26;100.00;99937.85;1747245;80;20990;-57
2022/06/28 02:25:12;;;;;;;5.37;4.87;;;;;;;18.25;100.00;99937.47;1741742;80;21111;-56
2022/06/28 02:27:39;;;;;;;4.28;3.95;;;;;;;18.23;100.00;99936.22;1745212;80;21098;-57
2022/06/28 02:30:07;;;;;;;4.22;3.92;;;;;;;18.21;100.00;99938.19;1753545;80;21234;-56
2022/06/28 02:32:34;;;;;;;4.92;4.67;;;;;;;18.15;100.00;99942.27;1752196;80;21125;-56
2022/06/28 02:40:30;;;;;;;6.30;5.70;;;;;;;18.06;100.00;99944.33;1753059;80;21568;-56
2022/06/28 02:42:59;;;;;;;3.77;3.47;;;;;;;18.09;100.00;99933.20;1757442;80;21132;-56
2022/06/28 02:45:29;;;;;;;5.80;4.42;;;;;;;18.13;100.00;99935.18;1753818;80;22372;-56
2022/06/28 02:47:56;;;;;;;3.25;2.95;;;;;;;18.18;100.00;99942.53;1758068;80;21091;-57
2022/06/28 02:50:23;;;;;;;2.83;2.62;;;;;;;18.24;100.00;99937.09;1752042;80;21128;-56
2022/06/28 02:52:49;;;;;;;4.83;2.67;;;;;;;18.26;100.00;99933.77;1755389;80;21077;-56
2022/06/28 02:55:16;;;;;;;3.42;3.20;;;;;;;18.26;100.00;99940.58;1752259;80;21251;-56
2022/06/28 02:57:42;;;;;;;4.00;3.67;;;;;;;18.25;100.00;99935.62;1754556;80;21199;-56
2022/06/28 03:00:14;;;;;;;3.60;3.30;;;;;;;18.25;100.00;99938.34;1676115;83;22026;-56
2022/06/28 03:02:42;;;;;;;4.70;4.33;;;;;;;18.31;100.00;99935.62;1755106;79;21517;-56
2022/06/28 03:05:12;;;;;;;4.53;4.30;;;;;;;18.33;100.00;99930.44;1678396;83;21077;-57
2022/06/28 03:07:38;;;;;;;4.17;3.75;;;;;;;18.39;100.00;99934.54;1751983;80;21695;-56
2022/06/28 03:10:06;;;;;;;4.40;4.20;;;;;;;18.46;100.00;99933.06;1755916;80;21086;-57
2022/06/28 03:12:33;;;;;;;4.55;4.15;;;;;;;18.51;100.00;99930.38;1756077;79;21038;-56
2022/06/28 03:14:59;;;;;;;4.17;3.87;;;;;;;18.58;100.00;99932.66;1756779;80;21045;-56
2022/06/28 03:17:27;;;;;;;4.28;3.80;;;;;;;18.64;100.00;99935.76;1664205;83;21328;-56
2022/06/28 03:19:54;;;;;;;4.55;4.25;;;;;;;18.70;100.00;99931.20;1757550;80;21665;-56
2022/06/28 03:22:20;;;;;;;5.70;3.83;;;;;;;18.77;100.00;99931.09;1678948;83;21035;-57
2022/06/28 03:24:47;;;;;;;4.65;4.35;;;;;;;18.85;100.00;99933.20;1756185;79;21490;-56
2022/06/28 03:27:14;;;;;;;4.83;3.95;;;;;;;18.93;100.00;99928.01;1757929;80;20943;-57
2022/06/28 03:29:41;;;;;;;6.08;3.77;;;;;;;19.01;100.00;99935.58;1752606;80;20988;-56
2022/06/28 03:32:10;;;;;;;5.15;4.33;;;;;;;19.09;100.00;99931.73;1751433;80;21090;-57
2022/06/28 03:34:36;;;;;;;4.67;4.37;;;;;;;19.18;100.00;99931.00;1675188;83;21289;-56
2022/06/28 03:37:03;;;;;;;4.83;4.53;;;;;;;19.28;100.00;99931.99;1755839;80;21411;-56
2022/06/28 03:39:37;;;;;;;6.08;5.67;;;;;;;19.39;100.00;99931.13;1680043;83;21787;-56
2022/06/28 03:42:04;;;;;;;4.95;4.75;;;;;;;19.47;100.00;99932.27;1754867;80;20907;-56
2022/06/28 03:44:31;;;;;;;4.70;4.40;;;;;;;19.55;100.00;99934.36;1676076;83;21776;-57
2022/06/28 03:46:58;;;;;;;3.85;3.65;;;;;;;19.64;100.00;99930.38;1752334;79;21325;-56
2022/06/28 03:49:27;;;;;;;3.98;3.72;;;;;;;19.73;100.00;99931.98;1747632;80;20916;-56
2022/06/28 03:51:55;;;;;;;4.33;4.12;;;;;;;19.82;100.00;99933.94;1752584;80;21062;-56
2022/06/28 03:54:27;;;;;;;4.50;4.20;;;;;;;19.92;100.00;99936.25;1752398;80;21422;-57
2022/06/28 03:57:07;;;;;;;3.55;3.25;;;;;;;20.02;100.00;99935.35;1750124;80;21082;-57
2022/06/28 03:59:36;;;;;;;3.87;3.67;;;;;;;20.15;100.00;99938.42;1753524;81;20974;-57
2022/06/28 04:02:04;;;;;;;5.97;4.20;;;;;;;20.26;100.00;99936.49;1751593;81;21520;-56
2022/06/28 04:04:32;;;;;;;4.15;3.85;;;;;;;20.38;100.00;99942.33;1728268;81;21714;-57
2022/06/28 04:06:59;;;;;;;4.47;3.83;;;;;;;20.52;100.00;99937.52;1750793;80;21137;-57
2022/06/28 04:09:26;;;;;;;4.47;4.20;;;;;;;20.65;100.00;99942.31;1749839;81;21564;-56
2022/06/28 04:11:55;;;;;;;5.03;4.80;;;;;;;20.78;100.00;99938.86;1745195;81;21438;-56
2022/06/28 04:14:21;;;;;;;5.45;5.25;;;;;;;20.91;100.00;99927.73;1749364;80;21504;-56
2022/06/28 04:16:48;;;;;;;8.55;6.03;;;;;;;21.04;100.00;99929.23;1752507;80;21098;-56
2022/06/28 04:19:16;;;;;;;6.83;6.25;;;;;;;21.17;100.00;99926.78;1749418;80;21041;-56
2022/06/28 04:21:44;;;;;;;6.95;6.40;;;;;;;21.30;100.00;99926.94;1751235;81;21410;-56
2022/06/28 04:24:12;;;;;;;6.67;5.95;;;;;;;21.43;100.00;99930.31;1672083;83;21081;-56
2022/06/28 04:26:41;;;;;;;5.80;5.50;;;;;;;21.58;100.00;99930.80;1748521;80;21109;-56
2022/06/28 04:29:09;;;;;;;5.12;4.83;;;;;;;21.71;100.00;99932.77;1753966;80;20981;-56
2022/06/28 04:31:36;;;;;;;7.80;4.90;;;;;;;21.82;100.00;99932.66;1743600;80;21093;-56
2022/06/28 04:34:02;;;;;;;5.85;5.47;;;;;;;21.94;100.00;99929.80;1742086;80;21146;-56
2022/06/28 04:36:31;;;;;;;7.00;4.33;;;;;;;22.05;100.00;99929.68;1745599;80;21045;-56
2022/06/28 04:38:58;;;;;;;7.70;6.78;;;;;;;22.17;100.00;99925.30;1745417;80;22515;-56
2022/06/28 04:41:26;;;;;;;5.08;4.53;;;;;;;22.29;100.00;99930.13;1669970;84;20980;-56
2022/06/28 04:43:55;;;;;;;6.30;5.90;;;;;;;22.41;100.00;99929.48;1748258;80;21035;-56
2022/06/28 04:46:28;;;;;;;6.28;5.78;;;;;;;22.52;100.00;99930.22;1745198;80;21157;-58
2022/06/28 04:48:56;;;;;;;5.78;5.28;;;;;;;22.63;100.00;99920.94;1676620;83;21066;-58
2022/06/28 04:51:30;;;;;;;4.87;4.58;;;;;;;22.74;100.00;99926.78;1749694;80;21101;-59
2022/06/28 04:53:56;;;;;;;5.45;5.05;;;;;;;22.85;100.00;99926.15;1749421;80;21034;-59
2022/06/28 04:56:24;;;;;;;5.33;4.83;;;;;;;22.96;100.00;99929.23;1745848;80;21653;-58
2022/06/28 04:58:51;;;;;;;5.28;4.87;;;;;;;23.10;100.00;99926.00;1745278;80;21254;-60
2022/06/28 05:01:19;;;;;;;6.00;5.50;;;;;;;23.22;100.00;99930.81;1671173;84;21086;-58
2022/06/28 05:03:46;;;;;;;6.67;6.00;;;;;;;23.32;100.00;99925.63;1734061;80;21132;-57
2022/06/28 05:06:32;;;;;;;6.33;5.87;;;;;;;23.44;100.00;99924.06;1743005;80;21094;-57
2022/06/28 05:08:59;;;;;;;6.70;6.20;;;;;;;23.57;100.00;99924.59;1665843;83;21655;-58
2022/06/28 05:11:26;;;;;;;6.12;4.87;;;;;;;23.67;100.00;99917.17;1725103;81;21187;-60
2022/06/28 05:14:05;;;;;;;4.78;4.47;;;;;;;23.79;100.00;99915.95;1748864;80;21003;-59
2022/06/28 05:16:31;;;;;;;4.75;4.35;;;;;;;23.93;100.00;99910.42;1748987;80;21481;-57
2022/06/28 05:18:58;;;;;;;5.33;4.53;;;;;;;24.04;100.00;99912.45;1678831;83;21068;-57
2022/06/28 05:21:27;;;;;;;4.53;4.22;;;;;;;24.17;100.00;99907.06;1748019;80;21564;-58
2022/06/28 05:23:53;;;;;;;3.80;2.77;;;;;;;24.27;100.00;99908.75;1744935;80;21500;-60
2022/06/28 05:26:29;;;;;;;4.03;3.40;;;;;;;24.40;100.00;99904.24;1744975;80;21093;-59
2022/06/28 05:29:03;;;;;;;;;;;;;;;24.55;100.00;99902.64;1741527;80;21445;-57
2022/06/28 05:31:30;;;;;;;2.42;2.15;;;;;;;24.68;100.00;99900.33;1752501;80;20160;-57
2022/06/28 05:33:56;;;;;;;2.47;2.33;;;;;;;24.78;100.00;99899.72;1748138;80;21516;-57
2022/06/28 05:36:23;;;;;;;5.92;2.58;;;;;;;24.89;100.00;99897.22;1747103;80;21196;-58
2022/06/28 05:38:51;;;;;;;5.40;2.90;;;;;;;24.98;100.00;99897.66;1747790;80;21085;-56
2022/06/28 05:41:18;;;;;;;10.55;1.90;;;;;;;25.07;100.00;99895.83;1745162;80;21043;-57
2022/06/28 05:43:45;;;;;;;4.33;2.08;;;;;;;25.15;100.00;99903.63;1749232;80;21078;-58
2022/06/28 05:46:11;;;;;;;3.50;1.95;;;;;;;25.24;100.00;99905.91;1745987;80;22333;-57
2022/06/28 05:48:37;;;;;;;4.08;1.95;;;;;;;25.31;100.00;99898.70;1748433;80;22234;-56
2022/06/28 05:51:04;;;;;;;5.00;1.80;;;;;;;25.39;100.00;99896.50;1739318;80;21081;-57
2022/06/28 05:53:30;;;;;;;2.42;1.57;;;;;;;25.48;100.00;99895.52;1743600;80;21456;-57
2022/06/28 05:55:58;;;;;;;2.12;1.40;;;;;;;25.54;100.00;99897.08;1748659;80;21109;-56
2022/06/28 05:58:25;;;;;;;5.58;1.10;;;;;;;25.61;100.00;99900.92;1746026;80;21038;-58
2022/06/28 06:00:51;;;;;;;1.70;0.95;;;;;;;25.71;100.00;99898.04;1744882;80;21881;-57
2022/06/28 06:03:18;;;;;;;1.77;1.07;;;;;;;25.79;100.00;99905.47;1746997;80;21022;-57
2022/06/28 06:05:45;;;;;;;3.75;1.15;;;;;;;25.87;100.00;99905.49;1744157;80;21125;-56
2022/06/28 06:08:11;;;;;;;1.05;0.93;;;;;;;25.96;100.00;99903.11;1735907;80;21049;-60
2022/06/28 06:10:38;;;;;;;2.35;1.07;;;;;;;26.06;100.00;99904.34;1742432;80;21046;-55
2022/06/28 06:13:05;;;;;;;1.20;0.90;;;;;;;26.14;100.00;99904.36;1743071;80;21637;-56
2022/06/28 06:15:32;;;;;;;5.25;1.10;;;;;;;26.20;100.00;99903.70;1742655;80;21576;-57
2022/06/28 06:18:00;;;;;;;3.40;1.10;;;;;;;26.27;100.00;99898.73;1744693;80;21136;-57
2022/06/28 06:20:27;;;;;;;4.70;1.15;;;;;;;26.33;100.00;99894.42;1729543;81;20979;-56
2022/06/28 06:22:53;;;;;;;2.35;0.80;;;;;;;26.39;100.00;99893.72;1747693;80;21099;-56
2022/06/28 06:25:30;;;;;;;1.32;1.10;;;;;;;26.45;100.00;99883.91;1723611;80;21108;-57
2022/06/28 06:27:57;;;;;;;5.12;1.07;;;;;;;26.53;100.00;99887.54;1745612;80;21111;-57
2022/06/28 06:30:24;;;;;;;3.02;1.62;;;;;;;26.60;100.00;99889.95;1742740;80;21049;-58
2022/06/28 06:32:52;;;;;;;4.92;1.15;;;;;;;26.66;100.00;99894.77;1724820;80;20951;-57
2022/06/28 06:35:39;;;;;;;5.30;0.90;;;;;;;26.73;100.00;99883.36;1746176;80;20917;-56
2022/06/28 06:38:06;;;;;;;1.80;0.90;;;;;;;26.82;100.00;99889.73;1749345;80;21181;-58
2022/06/28 06:42:52;;;;;;;2.22;0.80;;;;;;;27.01;100.00;99885.78;1794289;78;22756;-57
2022/06/28 06:45:21;;;;;;;3.75;1.20;;;;;;;27.03;100.00;99889.23;1775853;79;20855;-58
2022/06/28 06:47:47;;;;;;;2.62;0.80;;;;;;;27.07;100.00;99890.59;1778415;79;21137;-57
2022/06/28 06:50:14;;;;;;;4.17;0.80;;;;;;;27.13;100.00;99887.14;1744727;81;20906;-58
2022/06/28 06:52:40;;;;;;;1.67;1.00;;;;;;;27.19;100.00;99882.80;1725352;82;20903;-58
2022/06/28 06:55:07;;;;;;;3.90;0.90;;;;;;;27.24;100.00;99880.35;1727348;82;20913;-58
2022/06/28 06:57:36;;;;;;;0.90;0.90;;;;;;;27.30;100.00;99885.19;1714272;82;20953;-58
2022/06/28 07:00:05;;;;;;;3.72;1.00;;;;;;;27.34;100.00;99881.88;1708323;82;22006;-59
2022/06/28 07:02:40;;;;;;;3.77;0.93;;;;;;;27.39;100.00;99881.36;1662903;83;21595;-58
2022/06/28 07:05:07;;;;;;;0.88;0.70;;;;;;;27.45;100.00;99882.02;1697599;83;20940;-58
2022/06/28 07:07:34;;;;;;;1.70;0.80;;;;;;;27.53;100.00;99886.13;1698277;84;20967;-58
2022/06/28 07:10:03;;;;;;;1.95;0.70;;;;;;;27.56;100.00;99883.56;1669323;83;21069;-59
2022/06/28 07:12:30;;;;;;;0.98;0.80;;;;;;;27.59;100.00;99883.19;1696617;82;21118;-58
2022/06/28 07:14:57;;;;;;;0.60;0.60;;;;;;;27.61;100.00;99875.06;1698961;82;21013;-58
2022/06/28 07:17:25;;;;;;;0.90;0.90;;;;;;;27.68;100.00;99881.59;1696344;83;21462;-58
2022/06/28 07:19:52;;;;;;;1.00;0.70;;;;;;;27.72;100.00;99877.44;1695011;83;21533;-58
2022/06/28 07:22:18;;;;;;;1.00;0.90;;;;;;;27.75;100.00;99876.19;1698607;83;21536;-60
2022/06/28 07:24:45;;;;;;;1.37;0.98;;;;;;;27.73;100.00;99883.83;1697558;82;23263;-57
2022/06/28 07:27:11;;;;;;;1.00;0.80;;;;;;;27.68;100.00;99882.98;1695253;82;21048;-57
2022/06/28 07:29:38;;;;;;;1.95;0.90;;;;;;;27.62;100.00;99880.94;1696327;82;21089;-60
2022/06/28 07:32:06;;;;;;;2.45;0.70;;;;;;;27.58;100.00;99886.47;1697859;83;21105;-58
2022/06/28 07:34:33;;;;;;;6.65;1.10;;;;;;;27.60;100.00;99891.83;1696845;83;21159;-62
2022/06/28 07:37:01;;;;;;;1.32;1.22;;;;;;;27.61;100.00;99890.27;1696505;83;21276;-57
2022/06/28 07:39:28;;;;;;;1.82;0.90;;;;;;;27.66;100.00;99886.44;1695503;82;21084;-58
2022/06/28 07:42:12;;;;;;;3.47;0.80;;;;;;;27.73;100.00;99885.22;1685762;83;21492;-58
2022/06/28 07:44:41;;;;;;;2.70;0.90;;;;;;;27.82;100.00;99886.87;1738319;80;21101;-58
2022/06/28 07:47:07;;;;;;;1.65;0.85;;;;;;;27.88;100.00;99891.70;1747447;81;21572;-59
2022/06/28 07:52:52;;;;;;;1.20;0.90;;;;;;;28.04;100.00;99896.27;1742997;80;21527;-57
2022/06/28 07:54:53;;;;;;;0.82;0.80;;;;;;;28.11;100.00;99900.88;1728786;80;21053;-59
2022/06/28 07:57:22;;;;;;;0.93;0.70;;;;;;;28.22;100.00;99901.02;1739012;80;21097;-59
2022/06/28 07:59:48;;;;;;;2.80;0.90;;;;;;;28.33;100.00;99902.52;1741126;81;21057;-58
2022/06/28 08:02:16;;;;;;;2.50;1.00;;;;;;;28.43;100.00;99901.20;1740063;80;21540;-59
2022/06/28 08:04:46;;;;;;;1.00;0.90;;;;;;;28.53;100.00;99903.72;1744125;80;21973;-58
2022/06/28 08:07:13;;;;;;;1.00;0.90;;;;;;;28.65;100.00;99897.23;1739611;80;21320;-59
2022/06/28 08:09:41;;;;;;;1.52;0.90;;;;;;;28.78;100.00;99890.03;1742536;80;21651;-59
2022/06/28 08:12:10;;;;;;;1.00;0.90;;;;;;;28.91;100.00;99897.19;1741192;80;21075;-58
2022/06/28 08:14:36;;;;;;;1.22;0.90;;;;;;;29.04;100.00;99902.06;1742118;80;21135;-58
2022/06/28 08:17:04;;;;;;;5.50;1.30;;;;;;;29.13;100.00;99897.30;1741269;80;21140;-59
2022/06/28 08:19:31;;;;;;;1.87;0.80;;;;;;;29.21;100.00;99893.05;1745415;80;21070;-59
2022/06/28 08:21:58;;;;;;;1.02;0.93;;;;;;;29.30;100.00;99898.31;1739752;80;21495;-59
2022/06/28 08:24:24;;;;;;;1.00;0.90;;;;;;;29.39;100.00;99894.09;1738166;81;21096;-58
2022/06/28 08:26:52;;;;;;;4.08;0.90;;;;;;;29.41;100.00;99885.93;1716369;80;21751;-58
2022/06/28 08:29:20;;;;;;;2.72;1.10;;;;;;;29.38;100.00;99889.08;1742416;80;21081;-58
2022/06/28 08:31:49;;;;;;;3.75;1.05;;;;;;;29.34;100.00;99882.17;1744448;81;21046;-58
2022/06/28 08:34:15;;;;;;;2.70;1.02;;;;;;;29.29;100.00;99886.89;1740639;81;21523;-59
2022/06/28 08:36:42;;;;;;;4.83;0.90;;;;;;;29.26;100.00;99884.48;1738151;80;21155;-58
2022/06/28 08:39:08;;;;;;;1.02;0.93;;;;;;;29.25;100.00;99884.70;1738875;81;22120;-58
2022/06/28 08:41:35;;;;;;;2.65;0.95;;;;;;;29.23;100.00;99880.73;1734079;81;21499;-58
2022/06/28 08:44:01;;;;;;;3.08;0.90;;;;;;;29.21;100.00;99884.21;1736757;80;21069;-58
2022/06/28 08:46:28;;;;;;;0.80;0.80;;;;;;;29.18;100.00;99879.03;1737220;80;21158;-60
2022/06/28 08:49:03;;;;;;;1.45;0.85;;;;;;;29.13;100.00;99882.92;1739116;80;21747;-58
2022/06/28 08:51:31;;;;;;;2.62;0.90;;;;;;;29.05;100.00;99878.85;1737675;80;21887;-57
2022/06/28 08:54:01;;;;;;;1.85;0.90;;;;;;;28.97;100.00;99871.48;1737854;80;21061;-59
2022/06/28 08:56:28;;;;;;;2.90;1.35;;;;;;;28.93;100.00;99876.20;1738316;80;21086;-62
2022/06/28 08:58:58;;;;;;;0.88;0.88;;;;;;;28.88;100.00;99876.77;1736545;80;21042;-60
2022/06/28 09:01:25;;;;;;;1.20;0.80;;;;;;;28.84;100.00;99871.26;1733892;81;21034;-62
2022/06/28 09:03:53;;;;;;;0.80;0.80;;;;;;;28.81;100.00;99873.05;1741937;81;21137;-63
2022/06/28 09:06:19;;;;;;;4.00;0.85;;;;;;;28.78;100.00;99871.16;1739239;81;20982;-60
2022/06/28 09:08:46;;;;;;;1.10;0.90;;;;;;;28.76;100.00;99868.57;1736551;81;21090;-62
2022/06/28 09:11:12;;;;;;;2.15;0.90;;;;;;;28.75;100.00;99871.52;1734395;81;21206;-56
2022/06/28 09:13:41;;;;;;;0.80;0.80;;;;;;;28.75;100.00;99870.14;1737717;80;22862;-57
2022/06/28 09:16:07;;;;;;;0.80;0.80;;;;;;;28.74;100.00;99872.56;1733366;80;21235;-60
2022/06/28 09:18:42;;;;;;;2.60;0.90;;;;;;;28.77;100.00;99875.84;1736369;81;21319;-59
2022/06/28 09:21:11;;;;;;;3.02;0.82;;;;;;;28.82;100.00;99866.98;1742337;80;21013;-59
2022/06/28 09:23:40;;;;;;;2.30;0.88;;;;;;;28.91;100.00;99865.33;1742747;80;20875;-60
2022/06/28 09:26:10;;;;;;;0.90;0.90;;;;;;;29.04;100.00;99869.34;1737258;80;20930;-58
2022/06/28 09:28:47;;;;;;;1.77;0.90;;;;;;;29.12;100.00;99860.93;1738971;80;22324;-58
2022/06/28 09:31:28;;;;;;;1.12;0.80;;;;;;;29.20;100.00;99859.45;1737265;80;21512;-59
2022/06/28 09:34:03;;;;;;;0.80;0.80;;;;;;;29.28;100.00;99851.89;1738694;80;20964;-60
2022/06/28 09:36:38;;;;;;;0.90;0.80;;;;;;;29.41;100.00;99849.88;1738373;80;21524;-58
2022/06/28 09:39:16;;;;;;;0.98;0.90;;;;;;;29.47;100.00;99851.02;1735995;81;20926;-58
2022/06/28 09:41:47;;;;;;;1.10;1.00;;;;;;;29.45;100.00;99845.66;1738979;81;21722;-58
2022/06/28 09:44:15;;;;;;;0.80;0.75;;;;;;;29.41;100.00;99845.72;1743004;81;21022;-58
2022/06/28 09:46:42;;;;;;;1.00;0.78;;;;;;;29.40;100.00;99847.30;1742341;81;21156;-57
2022/06/28 09:49:09;;;;;;;1.00;1.00;;;;;;;29.38;100.00;99841.94;1740766;81;21554;-58
2022/06/28 09:51:37;;;;;;;0.80;0.80;;;;;;;29.41;100.00;99842.09;1740802;80;21810;-58
2022/06/28 09:54:07;;;;;;;3.27;0.70;;;;;;;29.44;100.00;99828.68;1743255;81;21528;-56
2022/06/28 09:56:38;;;;;;;1.07;0.88;;;;;;;29.50;100.00;99821.52;1745237;80;21530;-58
2022/06/28 09:59:07;;;;;;;1.75;0.93;;;;;;;29.57;100.00;99822.45;1743140;81;20946;-58
2022/06/28 10:01:34;;;;;;;2.05;0.80;;;;;;;29.65;100.00;99811.25;1741542;81;21377;-58
2022/06/28 10:04:01;;;;;;;1.87;0.80;;;;;;;29.75;100.00;99821.52;1745358;80;20915;-57
2022/06/28 10:06:29;;;;;;;0.90;0.90;;;;;;;29.87;100.00;99819.06;1741808;80;21176;-58
2022/06/28 10:08:55;;;;;;;3.30;1.42;;;;;;;29.98;100.00;99824.14;1740815;80;21412;-58
2022/06/28 10:11:21;;;;;;;1.40;0.90;;;;;;;30.02;100.00;99815.77;1744739;81;21290;-57
2022/06/28 10:16:49;;;;;;;2.15;1.00;;;;;;;30.12;100.00;99814.88;1739955;81;21599;-58
2022/06/28 10:19:19;;;;;;;0.90;0.90;;;;;;;30.21;100.00;99807.28;1742559;80;21082;-57
2022/06/28 10:21:49;;;;;;;1.27;1.00;;;;;;;30.26;100.00;99807.56;1740338;80;21066;-58
2022/06/28 10:24:16;;;;;;;0.88;0.80;;;;;;;30.29;100.00;99814.08;1737196;80;21575;-60
2022/06/28 10:26:45;;;;;;;1.07;1.00;;;;;;;30.34;100.00;99812.45;1739135;80;21404;-58
2022/06/28 10:29:12;;;;;;;1.85;1.00;;;;;;;30.42;100.00;99804.50;1737409;80;22265;-58
2022/06/28 10:31:44;;;;;;;5.22;1.20;;;;;;;30.45;100.00;99820.22;1741306;80;21267;-61
2022/06/28 10:34:14;;;;;;;1.47;1.00;;;;;;;30.51;100.00;99806.61;1700078;82;21478;-60
2022/06/28 10:36:51;;;;;;;1.27;1.00;;;;;;;30.57;100.00;99802.52;1741992;80;21024;-59
2022/06/28 10:39:21;;;;;;;1.10;0.93;;;;;;;30.61;100.00;99802.46;1739471;80;21370;-58
2022/06/28 10:42:01;;;;;;;1.17;1.00;;;;;;;30.59;100.00;99802.33;1742146;80;21059;-59
2022/06/28 10:44:36;;;;;;;1.00;1.00;;;;;;;30.63;100.00;99806.40;1739392;80;21113;-60
2022/06/28 10:47:10;;;;;;;1.10;1.00;;;;;;;30.66;100.00;99805.48;1739124;81;21100;-57
2022/06/28 10:49:57;;;;;;;1.30;0.90;;;;;;;30.73;100.00;99797.19;1737017;80;21789;-58
2022/06/28 10:52:35;;;;;;;3.83;1.00;;;;;;;30.79;100.00;99794.45;1741088;80;21548;-60
2022/06/28 10:55:10;;;;;;;0.90;0.90;;;;;;;30.89;100.00;99793.23;1739231;80;21085;-60
2022/06/28 10:57:40;;;;;;;1.77;1.20;;;;;;;30.94;100.00;99790.19;1737366;80;21120;-59
2022/06/28 11:00:13;;;;;;;2.08;0.90;;;;;;;31.00;100.00;99789.36;1704255;82;21043;-60
2022/06/28 11:02:56;;;;;;;1.05;1.05;;;;;;;31.04;100.00;99792.60;1713178;81;20994;-59
2022/06/28 11:05:25;;;;;;;1.10;1.00;;;;;;;31.08;100.00;99788.36;1744939;80;21526;-62
2022/06/28 11:07:59;;;;;;;2.95;1.05;;;;;;;31.09;100.00;99782.61;1728466;81;21093;-59
2022/06/28 11:10:28;;;;;;;1.12;0.90;;;;;;;31.10;100.00;99775.13;1700168;83;21161;-61
2022/06/28 11:13:10;;;;;;;1.10;1.00;;;;;;;31.13;100.00;99774.20;1698517;82;21202;-60
2022/06/28 11:15:37;;;;;;;2.45;1.10;;;;;;;31.19;100.00;99779.45;1649961;83;21067;-59
2022/06/28 11:18:16;;;;;;;1.22;1.15;;;;;;;31.19;100.00;99772.50;1742923;80;21296;-59
2022/06/28 11:20:43;;;;;;;1.20;1.10;;;;;;;31.19;100.00;99772.50;1740957;80;21096;-60
2022/06/28 11:23:09;;;;;;;1.55;1.15;;;;;;;31.16;100.00;99774.30;1743102;80;21265;-58
2022/06/28 11:28:21;;;;;;;1.00;1.00;;;;;;;30.97;100.00;99775.86;1740501;80;21026;-59
2022/06/28 11:30:48;;;;;;;3.17;1.10;;;;;;;30.84;100.00;99770.23;1739719;80;21187;-59
2022/06/28 11:33:14;;;;;;;6.83;1.00;;;;;;;30.74;100.00;99774.77;1740706;80;21074;-60
2022/06/28 11:35:41;;;;;;;2.08;0.95;;;;;;;30.70;100.00;99771.22;1691753;80;21073;-59
2022/06/28 11:38:10;;;;;;;1.20;1.10;;;;;;;30.68;100.00;99767.77;1740647;80;21046;-59
2022/06/28 11:40:51;;;;;;;1.10;1.00;;;;;;;30.69;100.00;99764.80;1740815;80;21108;-58
2022/06/28 11:43:20;;;;;;;4.35;1.00;;;;;;;30.73;100.00;99765.23;1723146;81;21108;-59
2022/06/28 11:45:49;;;;;;;2.70;1.10;;;;;;;30.80;100.00;99764.74;1703222;82;21563;-61
2022/06/28 11:48:19;;;;;;;1.20;1.07;;;;;;;30.83;100.00;99762.42;1705924;82;21445;-59
2022/06/28 11:50:51;;;;;;;1.10;1.00;;;;;;;30.88;100.00;99762.36;1705663;82;21055;-60